HFY003 SBCH-SBPA
Flight info
| Callsign | HFY003 |
|---|---|
| Flight time | 0h 44m |
| Altitude | 25000 |
| Route | CH002 |
| Aircraft | A320/M-SDE3FGHIRWY/LB1 |
Departure
| Time | 2026-04-30 12:57 |
|---|---|
| Airport | Serafin Enoss Bertaso Airport (SBCH) |
Arrival
| Time | 2026-04-30 13:41 |
|---|---|
| Airport | Porto Alegre-Salgado Filho International Airport (SBPA) |
| Time | Latitude | Longitude | Altitude | Speed | Heading |
|---|---|---|---|---|---|
| 2026-04-30 12:36 | -27.13224 | -52.66161 | 2134 ft | 0 kts | 49° |
| 2026-04-30 12:48 | -27.13225 | -52.66163 | 2134 ft | 1 kts | 46° |
| 2026-04-30 12:48 | -27.13222 | -52.66169 | 2133 ft | 3 kts | 352° |
| 2026-04-30 12:49 | -27.13233 | -52.66170 | 2133 ft | 1 kts | 39° |
| 2026-04-30 12:49 | -27.13242 | -52.66178 | 2132 ft | 3 kts | 8° |
| 2026-04-30 12:49 | -27.13250 | -52.66178 | 2133 ft | 3 kts | 296° |
| 2026-04-30 12:49 | -27.13257 | -52.66160 | 2134 ft | 1 kts | 296° |
| 2026-04-30 12:50 | -27.13263 | -52.66147 | 2133 ft | 3 kts | 296° |
| 2026-04-30 12:50 | -27.13271 | -52.66127 | 2133 ft | 3 kts | 275° |
| 2026-04-30 12:50 | -27.13270 | -52.66106 | 2132 ft | 2 kts | 275° |
| 2026-04-30 12:50 | -27.13270 | -52.66101 | 2135 ft | 0 kts | 279° |
| 2026-04-30 12:52 | -27.13273 | -52.66103 | 2135 ft | 1 kts | 247° |
| 2026-04-30 12:53 | -27.13277 | -52.66103 | 2135 ft | 0 kts | 197° |
| 2026-04-30 12:53 | -27.13305 | -52.66102 | 2137 ft | 5 kts | 184° |
| 2026-04-30 12:53 | -27.13327 | -52.66113 | 2137 ft | 3 kts | 205° |
| 2026-04-30 12:53 | -27.13341 | -52.66126 | 2136 ft | 4 kts | 227° |
| 2026-04-30 12:54 | -27.13343 | -52.66186 | 2135 ft | 12 kts | 278° |
| 2026-04-30 12:54 | -27.13323 | -52.66310 | 2132 ft | 20 kts | 281° |
| 2026-04-30 12:54 | -27.13300 | -52.66487 | 2130 ft | 26 kts | 277° |
| 2026-04-30 12:54 | -27.13282 | -52.66640 | 2123 ft | 0 kts | 280° |
| 2026-04-30 12:55 | -27.13279 | -52.66659 | 2121 ft | 4 kts | 280° |
| 2026-04-30 12:55 | -27.13270 | -52.66707 | 2118 ft | 8 kts | 282° |
| 2026-04-30 12:55 | -27.13259 | -52.66778 | 2115 ft | 11 kts | 280° |
| 2026-04-30 12:55 | -27.13225 | -52.66848 | 2112 ft | 10 kts | 322° |
| 2026-04-30 12:56 | -27.13241 | -52.66871 | 2112 ft | 3 kts | 141° |
| 2026-04-30 12:56 | -27.13242 | -52.66863 | 2112 ft | 0 kts | 105° |
| 2026-04-30 12:56 | -27.13243 | -52.66860 | 2112 ft | 3 kts | 105° |
| 2026-04-30 12:56 | -27.13287 | -52.66570 | 2126 ft | 80 kts | 98° |
| 2026-04-30 12:57 | -27.13420 | -52.65674 | 2157 ft | 151 kts | 104° |
| 2026-04-30 12:57 | -27.13663 | -52.64496 | 2765 ft | 162 kts | 105° |
| 2026-04-30 12:57 | -27.13966 | -52.63172 | 3278 ft | 194 kts | 104° |
| 2026-04-30 12:57 | -27.14350 | -52.61597 | 3695 ft | 214 kts | 103° |
| 2026-04-30 12:58 | -27.14370 | -52.59908 | 4108 ft | 231 kts | 70° |
| 2026-04-30 12:58 | -27.13442 | -52.58392 | 4703 ft | 246 kts | 45° |
| 2026-04-30 12:58 | -27.12142 | -52.57031 | 5295 ft | 262 kts | 52° |
| 2026-04-30 12:58 | -27.11458 | -52.55138 | 6055 ft | 271 kts | 86° |
| 2026-04-30 12:59 | -27.11852 | -52.53059 | 6802 ft | 281 kts | 119° |
| 2026-04-30 12:59 | -27.13238 | -52.51503 | 7540 ft | 288 kts | 150° |
| 2026-04-30 12:59 | -27.15097 | -52.50636 | 8358 ft | 291 kts | 161° |
| 2026-04-30 12:59 | -27.17016 | -52.49885 | 9204 ft | 293 kts | 161° |
| 2026-04-30 13:00 | -27.18947 | -52.49129 | 10057 ft | 295 kts | 162° |
| 2026-04-30 13:00 | -27.20929 | -52.48355 | 10497 ft | 312 kts | 162° |
| 2026-04-30 13:00 | -27.23051 | -52.47533 | 10785 ft | 332 kts | 162° |
| 2026-04-30 13:00 | -27.25260 | -52.46679 | 11366 ft | 339 kts | 162° |
| 2026-04-30 13:01 | -27.27508 | -52.45809 | 12067 ft | 343 kts | 162° |
| 2026-04-30 13:01 | -27.29774 | -52.44928 | 12758 ft | 346 kts | 162° |
| 2026-04-30 13:01 | -27.32061 | -52.44041 | 13473 ft | 349 kts | 162° |
| 2026-04-30 13:01 | -27.34371 | -52.43146 | 14125 ft | 353 kts | 163° |
| 2026-04-30 13:02 | -27.36703 | -52.42239 | 14707 ft | 356 kts | 163° |
| 2026-04-30 13:02 | -27.39024 | -52.41338 | 15285 ft | 359 kts | 163° |
| 2026-04-30 13:02 | -27.41402 | -52.40416 | 15874 ft | 363 kts | 163° |
| 2026-04-30 13:02 | -27.43831 | -52.39474 | 16451 ft | 366 kts | 163° |
| 2026-04-30 13:03 | -27.46215 | -52.38551 | 17014 ft | 370 kts | 164° |
| 2026-04-30 13:03 | -27.48663 | -52.37603 | 17574 ft | 373 kts | 164° |
| 2026-04-30 13:03 | -27.51126 | -52.36647 | 18141 ft | 376 kts | 164° |
| 2026-04-30 13:03 | -27.53615 | -52.35678 | 18664 ft | 380 kts | 164° |
| 2026-04-30 13:04 | -27.56127 | -52.34702 | 19141 ft | 383 kts | 164° |
| 2026-04-30 13:04 | -27.58658 | -52.33718 | 19626 ft | 387 kts | 164° |
| 2026-04-30 13:04 | -27.61216 | -52.32721 | 20102 ft | 391 kts | 165° |
| 2026-04-30 13:04 | -27.63795 | -52.31712 | 20576 ft | 394 kts | 165° |
| 2026-04-30 13:05 | -27.66398 | -52.30691 | 21049 ft | 398 kts | 165° |
| 2026-04-30 13:05 | -27.69030 | -52.29660 | 21532 ft | 401 kts | 165° |
| 2026-04-30 13:05 | -27.71680 | -52.28625 | 22020 ft | 405 kts | 165° |
| 2026-04-30 13:06 | -27.77059 | -52.26536 | 22988 ft | 412 kts | 165° |
| 2026-04-30 13:06 | -27.79780 | -52.25477 | 23462 ft | 416 kts | 165° |
| 2026-04-30 13:06 | -27.82526 | -52.24405 | 23905 ft | 419 kts | 165° |
| 2026-04-30 13:06 | -27.85293 | -52.23321 | 24288 ft | 422 kts | 165° |
| 2026-04-30 13:07 | -27.88081 | -52.22228 | 24660 ft | 425 kts | 165° |
| 2026-04-30 13:07 | -27.90850 | -52.21143 | 25027 ft | 428 kts | 165° |
| 2026-04-30 13:07 | -27.93662 | -52.20041 | 25134 ft | 427 kts | 165° |
| 2026-04-30 13:07 | -27.96427 | -52.18954 | 25164 ft | 415 kts | 165° |
| 2026-04-30 13:08 | -27.99143 | -52.17887 | 25166 ft | 411 kts | 165° |
| 2026-04-30 13:08 | -28.01837 | -52.16830 | 25169 ft | 410 kts | 165° |
| 2026-04-30 13:08 | -28.04528 | -52.15774 | 25169 ft | 409 kts | 165° |
| 2026-04-30 13:08 | -28.07217 | -52.14717 | 25170 ft | 409 kts | 165° |
| 2026-04-30 13:09 | -28.09906 | -52.13658 | 25168 ft | 409 kts | 165° |
| 2026-04-30 13:09 | -28.12596 | -52.12596 | 25167 ft | 409 kts | 165° |
| 2026-04-30 13:09 | -28.15282 | -52.11534 | 25170 ft | 409 kts | 165° |
| 2026-04-30 13:09 | -28.17967 | -52.10477 | 25170 ft | 409 kts | 165° |
| 2026-04-30 13:10 | -28.20657 | -52.09421 | 25139 ft | 408 kts | 165° |
| 2026-04-30 13:10 | -28.23320 | -52.08375 | 24885 ft | 400 kts | 165° |
| 2026-04-30 13:10 | -28.25910 | -52.07351 | 24804 ft | 387 kts | 165° |
| 2026-04-30 13:10 | -28.28406 | -52.06363 | 24723 ft | 373 kts | 166° |
| 2026-04-30 13:11 | -28.30814 | -52.05409 | 24645 ft | 360 kts | 166° |
| 2026-04-30 13:11 | -28.33134 | -52.04488 | 24569 ft | 347 kts | 166° |
| 2026-04-30 13:11 | -28.35373 | -52.03598 | 24498 ft | 335 kts | 166° |
| 2026-04-30 13:11 | -28.37553 | -52.02735 | 24431 ft | 330 kts | 166° |
| 2026-04-30 13:12 | -28.39718 | -52.01882 | 24362 ft | 329 kts | 166° |
| 2026-04-30 13:12 | -28.41882 | -52.01033 | 24297 ft | 328 kts | 166° |
| 2026-04-30 13:12 | -28.44038 | -52.00188 | 24247 ft | 327 kts | 166° |
| 2026-04-30 13:13 | -28.48331 | -51.98495 | 24119 ft | 326 kts | 166° |
| 2026-04-30 13:13 | -28.50466 | -51.97649 | 24055 ft | 324 kts | 166° |
| 2026-04-30 13:13 | -28.54719 | -51.95955 | 23929 ft | 323 kts | 166° |
| 2026-04-30 13:14 | -28.56843 | -51.95112 | 23867 ft | 323 kts | 166° |
| 2026-04-30 13:14 | -28.58960 | -51.94276 | 23751 ft | 323 kts | 166° |
| 2026-04-30 13:14 | -28.63190 | -51.92596 | 23255 ft | 320 kts | 166° |
| 2026-04-30 13:15 | -28.65279 | -51.91766 | 22988 ft | 317 kts | 166° |
| 2026-04-30 13:15 | -28.69407 | -51.90121 | 22477 ft | 313 kts | 166° |
| 2026-04-30 13:15 | -28.71459 | -51.89304 | 22224 ft | 311 kts | 166° |
| 2026-04-30 13:16 | -28.73492 | -51.88495 | 21972 ft | 309 kts | 166° |
| 2026-04-30 13:16 | -28.75513 | -51.87698 | 21708 ft | 306 kts | 168° |
| 2026-04-30 13:16 | -28.77538 | -51.87335 | 21525 ft | 294 kts | 184° |
| 2026-04-30 13:17 | -28.81649 | -51.87163 | 21311 ft | 298 kts | 183° |
| 2026-04-30 13:17 | -28.83708 | -51.87072 | 21048 ft | 293 kts | 183° |
| 2026-04-30 13:17 | -28.87775 | -51.86888 | 20922 ft | 291 kts | 183° |
| 2026-04-30 13:18 | -28.89799 | -51.86801 | 20857 ft | 291 kts | 183° |
| 2026-04-30 13:18 | -28.93847 | -51.86630 | 20608 ft | 291 kts | 183° |
| 2026-04-30 13:18 | -28.95862 | -51.86546 | 20383 ft | 288 kts | 183° |
| 2026-04-30 13:19 | -28.97858 | -51.86463 | 20145 ft | 286 kts | 183° |
| 2026-04-30 13:19 | -28.99841 | -51.86382 | 19908 ft | 284 kts | 183° |
| 2026-04-30 13:19 | -29.01814 | -51.86303 | 19677 ft | 283 kts | 183° |
| 2026-04-30 13:19 | -29.03778 | -51.86220 | 19448 ft | 282 kts | 183° |
| 2026-04-30 13:20 | -29.05729 | -51.86137 | 19218 ft | 280 kts | 183° |
| 2026-04-30 13:20 | -29.07675 | -51.86056 | 19001 ft | 278 kts | 184° |
| 2026-04-30 13:20 | -29.09607 | -51.85978 | 18776 ft | 277 kts | 184° |
| 2026-04-30 13:20 | -29.11508 | -51.85902 | 18555 ft | 276 kts | 184° |
| 2026-04-30 13:21 | -29.13416 | -51.85822 | 18312 ft | 274 kts | 184° |
| 2026-04-30 13:21 | -29.15319 | -51.85743 | 18056 ft | 273 kts | 183° |
| 2026-04-30 13:21 | -29.17239 | -51.85664 | 17797 ft | 272 kts | 183° |
| 2026-04-30 13:22 | -29.20982 | -51.85510 | 17286 ft | 270 kts | 183° |
| 2026-04-30 13:22 | -29.22853 | -51.85433 | 17044 ft | 268 kts | 183° |
| 2026-04-30 13:22 | -29.26569 | -51.85282 | 16544 ft | 266 kts | 183° |
| 2026-04-30 13:23 | -29.28415 | -51.85205 | 16298 ft | 265 kts | 182° |
| 2026-04-30 13:23 | -29.32089 | -51.85049 | 15824 ft | 263 kts | 182° |
| 2026-04-30 13:24 | -29.35729 | -51.84892 | 15345 ft | 261 kts | 182° |
| 2026-04-30 13:24 | -29.39342 | -51.84743 | 14880 ft | 259 kts | 182° |
| 2026-04-30 13:25 | -29.42932 | -51.84597 | 14418 ft | 257 kts | 182° |
| 2026-04-30 13:25 | -29.46493 | -51.84449 | 13962 ft | 255 kts | 181° |
| 2026-04-30 13:26 | -29.51787 | -51.84226 | 13191 ft | 253 kts | 181° |
| 2026-04-30 13:26 | -29.55273 | -51.84082 | 12687 ft | 252 kts | 181° |
| 2026-04-30 13:27 | -29.58770 | -51.83938 | 12186 ft | 251 kts | 181° |
| 2026-04-30 13:28 | -29.63990 | -51.83713 | 11456 ft | 250 kts | 181° |
| 2026-04-30 13:28 | -29.67455 | -51.83566 | 10974 ft | 249 kts | 181° |
| 2026-04-30 13:28 | -29.69183 | -51.83494 | 10735 ft | 248 kts | 181° |
| 2026-04-30 13:29 | -29.72633 | -51.83349 | 10269 ft | 248 kts | 180° |
| 2026-04-30 13:29 | -29.76068 | -51.83202 | 9884 ft | 246 kts | 181° |
| 2026-04-30 13:30 | -29.81209 | -51.82876 | 9490 ft | 247 kts | 177° |
| 2026-04-30 13:31 | -29.84617 | -51.82450 | 9234 ft | 246 kts | 176° |
| 2026-04-30 13:31 | -29.89711 | -51.81734 | 8857 ft | 250 kts | 167° |
| 2026-04-30 13:32 | -29.92683 | -51.79589 | 8602 ft | 261 kts | 129° |
| 2026-04-30 13:32 | -29.93910 | -51.75729 | 8349 ft | 262 kts | 99° |
| 2026-04-30 13:33 | -29.94473 | -51.71551 | 8112 ft | 264 kts | 99° |
| 2026-04-30 13:33 | -29.95041 | -51.67374 | 7874 ft | 263 kts | 99° |
| 2026-04-30 13:34 | -29.95322 | -51.65321 | 7740 ft | 256 kts | 99° |
| 2026-04-30 13:34 | -29.96136 | -51.59311 | 6872 ft | 251 kts | 99° |
| 2026-04-30 13:35 | -29.96406 | -51.57326 | 6547 ft | 250 kts | 99° |
| 2026-04-30 13:35 | -29.96937 | -51.53384 | 5885 ft | 247 kts | 99° |
| 2026-04-30 13:36 | -29.97461 | -51.49504 | 5254 ft | 243 kts | 99° |
| 2026-04-30 13:36 | -29.97721 | -51.47597 | 4943 ft | 240 kts | 99° |
| 2026-04-30 13:36 | -29.98228 | -51.43834 | 4314 ft | 234 kts | 99° |
| 2026-04-30 13:37 | -29.98476 | -51.41988 | 4017 ft | 231 kts | 99° |
| 2026-04-30 13:37 | -29.98961 | -51.38369 | 3376 ft | 228 kts | 96° |
| 2026-04-30 13:38 | -29.99097 | -51.34859 | 2801 ft | 215 kts | 92° |
| 2026-04-30 13:38 | -29.99133 | -51.33123 | 2502 ft | 217 kts | 92° |
| 2026-04-30 13:38 | -29.99206 | -51.29626 | 1926 ft | 218 kts | 92° |
| 2026-04-30 13:39 | -29.99276 | -51.26237 | 1350 ft | 199 kts | 92° |
| 2026-04-30 13:39 | -29.99337 | -51.23293 | 869 ft | 168 kts | 91° |
| 2026-04-30 13:40 | -29.99363 | -51.22007 | 680 ft | 155 kts | 90° |
| 2026-04-30 13:40 | -29.99388 | -51.20802 | 480 ft | 150 kts | 90° |
| 2026-04-30 13:40 | -29.99403 | -51.19616 | 280 ft | 144 kts | 89° |
| 2026-04-30 13:40 | -29.99414 | -51.18845 | 150 ft | 140 kts | 92° |
| 2026-04-30 13:41 | -29.99453 | -51.17476 | 20 ft | 109 kts | 92° |
| 2026-04-30 13:41 | -29.99467 | -51.16729 | 20 ft | 80 kts | 92° |
| 2026-04-30 13:41 | -29.99479 | -51.16206 | 25 ft | 44 kts | 91° |
| 2026-04-30 13:41 | -29.99461 | -51.16027 | 25 ft | 14 kts | 60° |
| 2026-04-30 13:42 | -29.99474 | -51.16005 | 24 ft | 5 kts | 229° |
| 2026-04-30 13:42 | -29.99486 | -51.16071 | 25 ft | 23 kts | 264° |
| 2026-04-30 13:42 | -29.99306 | -51.16256 | 22 ft | 16 kts | 311° |
| 2026-04-30 13:43 | -29.99287 | -51.16380 | 22 ft | 17 kts | 273° |
| 2026-04-30 13:43 | -29.99285 | -51.16525 | 22 ft | 19 kts | 270° |
| 2026-04-30 13:43 | -29.99286 | -51.16689 | 21 ft | 22 kts | 270° |
| 2026-04-30 13:43 | -29.99282 | -51.16870 | 21 ft | 23 kts | 274° |
| 2026-04-30 13:44 | -29.99271 | -51.17066 | 21 ft | 25 kts | 273° |
| 2026-04-30 13:44 | -29.99270 | -51.17266 | 20 ft | 17 kts | 273° |
| 2026-04-30 13:44 | -29.99265 | -51.17360 | 20 ft | 6 kts | 284° |
| 2026-04-30 13:44 | -29.99236 | -51.17386 | 20 ft | 6 kts | 346° |
| 2026-04-30 13:45 | -29.99184 | -51.17462 | 20 ft | 0 kts | 271° |
| 2026-04-30 13:45 | -29.99183 | -51.17476 | 20 ft | 3 kts | 283° |
| 2026-04-30 13:45 | -29.99164 | -51.17481 | 22 ft | 4 kts | 338° |
| 2026-04-30 13:46 | -29.99154 | -51.17481 | 20 ft | 2 kts | 1° |
| 2026-04-30 13:46 | -29.99141 | -51.17481 | 20 ft | 1 kts | 0° |
| 2026-04-30 13:46 | -29.99132 | -51.17481 | 20 ft | 2 kts | 0° |
| 2026-04-30 13:46 | -29.99131 | -51.17481 | 20 ft | 0 kts | 0° |